Time;durP1;ratioP1;P1;durP2;ratioP2;P2;SDS_P1;SDS_P2;PMS_P1;PMS_P2;Temp;Humidity;BMP_temperature;BMP_pressure;BME280_temperature;BME280_humidity;BME280_pressure;Samples;Min_cycle;Max_cycle;Signal;HPM_P1;HPM_P2
2021/09/03 00:02:12;;;;;;;28.73;23.00;;;14.60;93.50;;;;;;4881956;29;20040;-78
2021/09/03 00:04:38;;;;;;;30.77;24.08;;;14.70;93.50;;;;;;4881013;29;20032;-77
2021/09/03 00:07:03;;;;;;;34.13;25.17;;;14.60;93.50;;;;;;4898272;29;20400;-77
2021/09/03 00:09:29;;;;;;;33.70;25.00;;;14.60;93.50;;;;;;4913027;29;20477;-77
2021/09/03 00:11:55;;;;;;;32.80;25.35;;;14.60;93.50;;;;;;4881474;29;20080;-77
2021/09/03 00:14:21;;;;;;;33.85;25.02;;;14.50;93.60;;;;;;4896950;29;20455;-78
2021/09/03 00:16:47;;;;;;;35.13;25.42;;;14.50;93.70;;;;;;4896896;29;20115;-78
2021/09/03 00:19:12;;;;;;;33.78;25.35;;;14.50;93.80;;;;;;4897878;29;20039;-78
2021/09/03 00:21:38;;;;;;;39.25;25.58;;;14.40;93.80;;;;;;4866601;29;20041;-79
2021/09/03 00:24:04;;;;;;;36.40;27.10;;;14.40;93.90;;;;;;4881522;29;20033;-77
2021/09/03 00:26:29;;;;;;;32.53;25.50;;;14.40;93.90;;;;;;4866170;29;20136;-77
2021/09/03 00:28:55;;;;;;;33.05;26.48;;;14.30;93.90;;;;;;4912838;29;20039;-79
2021/09/03 00:31:21;;;;;;;34.60;26.08;;;14.30;94.00;;;;;;4881665;29;20033;-76
2021/09/03 00:33:46;;;;;;;34.75;25.15;;;14.30;94.10;;;;;;4881864;29;20036;-77
2021/09/03 00:36:12;;;;;;;30.30;24.55;;;14.30;94.10;;;;;;4880966;29;20060;-77
2021/09/03 00:38:38;;;;;;;31.55;26.17;;;14.30;94.10;;;;;;4898697;29;20029;-78
2021/09/03 00:41:03;;;;;;;31.85;24.20;;;14.20;94.10;;;;;;4881477;29;20047;-78
2021/09/03 00:43:31;;;;;;;31.55;24.55;;;14.20;94.20;;;;;;4897628;29;20037;-78
2021/09/03 00:45:57;;;;;;;30.48;24.10;;;14.20;94.20;;;;;;4881107;29;20124;-78
2021/09/03 00:48:23;;;;;;;34.65;25.25;;;14.20;94.20;;;;;;4899977;29;20123;-78
2021/09/03 00:50:52;;;;;;;36.92;25.27;;;14.20;94.20;;;;;;4930760;29;20119;-78
2021/09/03 00:53:19;;;;;;;34.00;25.15;;;14.20;94.30;;;;;;4931315;29;20083;-79
2021/09/03 00:55:46;;;;;;;34.75;26.00;;;14.30;94.30;;;;;;4900632;29;20071;-77
2021/09/03 00:58:12;;;;;;;39.10;27.55;;;14.20;94.20;;;;;;4916991;29;20168;-78
2021/09/03 01:00:38;;;;;;;36.13;27.20;;;14.10;94.30;;;;;;4884747;29;20131;-77
2021/09/03 01:03:05;;;;;;;34.97;26.98;;;14.10;94.40;;;;;;4903941;29;20040;-79
2021/09/03 01:05:31;;;;;;;38.88;28.65;;;14.00;94.40;;;;;;4936114;29;20032;-78
2021/09/03 01:07:57;;;;;;;38.47;28.13;;;14.00;94.50;;;;;;4934957;29;20048;-77
2021/09/03 01:10:23;;;;;;;38.53;27.73;;;14.00;94.60;;;;;;4935410;29;20035;-78
2021/09/03 01:12:50;;;;;;;43.42;29.25;;;13.90;94.60;;;;;;4903457;29;20040;-77
2021/09/03 01:15:16;;;;;;;43.10;29.60;;;13.90;94.70;;;;;;4934813;29;20066;-78
2021/09/03 01:17:42;;;;;;;38.47;28.33;;;13.90;94.70;;;;;;4919906;29;20139;-79
2021/09/03 01:20:11;;;;;;;47.42;31.10;;;13.80;94.80;;;;;;4935474;29;20024;-77
2021/09/03 01:22:38;;;;;;;45.20;31.60;;;13.80;94.90;;;;;;4934860;29;20032;-78
2021/09/03 01:25:04;;;;;;;41.72;31.90;;;13.80;95.00;;;;;;4888078;29;20512;-78
2021/09/03 01:27:30;;;;;;;47.88;32.33;;;13.80;95.10;;;;;;4903028;29;20048;-77
2021/09/03 01:29:55;;;;;;;46.38;32.83;;;13.70;95.10;;;;;;4902942;29;20080;-79
2021/09/03 01:32:21;;;;;;;42.10;31.80;;;13.70;95.10;;;;;;4887229;29;20028;-77
2021/09/03 01:34:47;;;;;;;41.78;30.58;;;13.60;95.20;;;;;;4902911;29;20096;-79
2021/09/03 01:37:12;;;;;;;45.47;32.30;;;13.60;95.20;;;;;;4887393;29;20036;-78
2021/09/03 01:39:38;;;;;;;43.50;32.13;;;13.60;95.30;;;;;;4903417;29;20043;-76
2021/09/03 01:42:04;;;;;;;48.80;33.17;;;13.60;95.30;;;;;;4919613;29;20446;-78
2021/09/03 01:44:30;;;;;;;43.42;33.30;;;13.60;95.40;;;;;;4902900;29;20138;-77
2021/09/03 01:46:56;;;;;;;45.17;34.30;;;13.60;95.40;;;;;;4910399;29;20048;-77
2021/09/03 01:49:22;;;;;;;45.22;33.08;;;13.50;95.40;;;;;;4883924;29;20028;-77
2021/09/03 01:51:48;;;;;;;43.85;31.80;;;13.60;95.50;;;;;;4884539;29;20035;-77
2021/09/03 01:54:13;;;;;;;45.65;32.58;;;13.50;95.50;;;;;;4884228;29;20373;-77
2021/09/03 01:56:39;;;;;;;48.25;33.72;;;13.50;95.60;;;;;;4868356;29;20172;-78
2021/09/03 01:59:05;;;;;;;47.80;34.08;;;13.50;95.60;;;;;;4900334;29;20035;-78
2021/09/03 02:01:31;;;;;;;49.55;34.35;;;13.50;95.60;;;;;;4900172;29;20111;-78
2021/09/03 02:03:56;;;;;;;47.42;34.05;;;13.50;95.70;;;;;;4868081;29;20524;-78
2021/09/03 02:06:22;;;;;;;50.78;36.55;;;13.50;95.70;;;;;;4914627;29;20453;-78
2021/09/03 02:08:47;;;;;;;49.63;35.60;;;13.40;95.70;;;;;;4867984;29;20536;-77
2021/09/03 02:11:13;;;;;;;55.42;39.25;;;13.40;95.80;;;;;;4883801;29;20472;-78
2021/09/03 02:13:39;;;;;;;54.28;39.15;;;13.40;95.80;;;;;;4900459;29;20421;-77
2021/09/03 02:16:05;;;;;;;50.08;36.50;;;13.30;95.80;;;;;;4900766;29;20088;-78
2021/09/03 02:18:31;;;;;;;54.08;37.75;;;13.30;95.90;;;;;;4883540;29;20036;-78
2021/09/03 02:20:57;;;;;;;51.50;36.47;;;13.30;95.90;;;;;;4883764;29;20028;-77
2021/09/03 02:23:23;;;;;;;57.13;40.83;;;13.30;96.10;;;;;;4883345;29;20032;-77
2021/09/03 02:25:48;;;;;;;54.28;37.63;;;13.30;96.00;;;;;;4883685;29;20044;-78
2021/09/03 02:28:15;;;;;;;52.90;38.33;;;13.20;96.00;;;;;;4867930;29;20496;-77
2021/09/03 02:30:42;;;;;;;55.38;39.08;;;13.20;96.10;;;;;;4914745;29;20032;-78
2021/09/03 02:33:09;;;;;;;56.05;39.42;;;13.20;96.00;;;;;;4900276;29;20495;-78
2021/09/03 02:35:35;;;;;;;54.35;37.78;;;13.20;96.10;;;;;;4899770;29;20380;-78
2021/09/03 02:38:01;;;;;;;52.08;38.28;;;13.20;96.10;;;;;;4883344;29;20116;-78
2021/09/03 02:40:27;;;;;;;52.50;39.40;;;13.20;96.20;;;;;;4899419;29;20036;-77
2021/09/03 02:42:54;;;;;;;53.45;39.60;;;13.20;96.10;;;;;;4883322;29;20552;-78
2021/09/03 02:45:20;;;;;;;57.67;40.30;;;13.10;96.20;;;;;;4899980;29;20119;-77
2021/09/03 02:47:46;;;;;;;60.10;42.53;;;13.10;96.20;;;;;;4914221;29;20083;-78
2021/09/03 02:50:12;;;;;;;65.07;43.92;;;13.10;96.30;;;;;;4933148;29;20032;-76
2021/09/03 02:52:38;;;;;;;55.33;39.97;;;13.10;96.30;;;;;;4901260;29;20400;-76
2021/09/03 02:55:04;;;;;;;55.65;39.50;;;13.10;96.40;;;;;;4901744;29;20127;-79
2021/09/03 02:57:30;;;;;;;63.90;42.42;;;13.10;96.30;;;;;;4933623;29;20032;-78
2021/09/03 02:59:55;;;;;;;58.17;40.10;;;13.10;96.40;;;;;;4918818;29;20057;-78
2021/09/03 03:02:21;;;;;;;60.85;41.70;;;13.00;96.40;;;;;;4918724;29;20043;-77
2021/09/03 03:04:47;;;;;;;58.57;40.67;;;13.00;96.40;;;;;;4933091;29;20067;-77
2021/09/03 03:07:13;;;;;;;66.07;43.13;;;13.00;96.40;;;;;;4918530;29;20039;-77
2021/09/03 03:09:38;;;;;;;57.30;41.97;;;13.00;96.40;;;;;;4932962;29;20515;-76
2021/09/03 03:12:05;;;;;;;62.67;41.42;;;12.90;96.40;;;;;;4932330;29;20050;-78
2021/09/03 03:14:33;;;;;;;60.08;43.17;;;13.00;96.50;;;;;;4901900;29;20028;-77
2021/09/03 03:17:01;;;;;;;58.47;43.08;;;12.90;96.50;;;;;;4901723;29;20364;-78
2021/09/03 03:19:27;;;;;;;65.17;44.43;;;12.90;96.50;;;;;;4932565;29;20079;-77
2021/09/03 03:21:54;;;;;;;61.50;42.42;;;12.90;96.60;;;;;;4901085;29;20042;-77
2021/09/03 03:24:20;;;;;;;59.97;41.80;;;12.90;96.50;;;;;;4901165;29;20043;-77
2021/09/03 03:26:47;;;;;;;59.75;41.17;;;12.90;96.60;;;;;;4885678;29;20040;-77
2021/09/03 03:29:13;;;;;;;59.80;41.67;;;12.90;96.60;;;;;;4932469;29;20062;-77
2021/09/03 03:31:39;;;;;;;54.00;39.47;;;12.80;96.60;;;;;;4918282;29;20115;-77
2021/09/03 03:34:05;;;;;;;52.30;38.90;;;12.80;96.60;;;;;;4901015;29;20464;-77
2021/09/03 03:36:30;;;;;;;54.33;38.33;;;12.90;96.60;;;;;;4900642;29;20042;-77
2021/09/03 03:38:56;;;;;;;56.13;39.80;;;12.90;96.60;;;;;;4886107;29;20028;-77
2021/09/03 03:41:22;;;;;;;56.38;38.50;;;13.00;96.60;;;;;;4901084;29;20436;-77
2021/09/03 03:43:47;;;;;;;58.30;40.40;;;12.90;96.60;;;;;;4918272;29;20066;-77
2021/09/03 03:46:13;;;;;;;55.05;39.47;;;12.90;96.60;;;;;;4931498;29;20441;-78
2021/09/03 03:48:39;;;;;;;53.47;38.63;;;12.90;96.80;;;;;;4900532;29;20076;-77
2021/09/03 03:51:05;;;;;;;54.28;40.25;;;12.90;96.60;;;;;;4885406;29;20035;-79
2021/09/03 03:53:31;;;;;;;57.13;39.03;;;12.90;96.80;;;;;;4884931;29;20031;-78
2021/09/03 03:55:57;;;;;;;62.50;41.38;;;12.80;96.60;;;;;;4900184;29;20127;-76
2021/09/03 03:58:23;;;;;;;63.80;43.50;;;12.80;96.60;;;;;;4900669;29;20036;-75
2021/09/03 04:00:48;;;;;;;58.33;42.45;;;12.80;96.70;;;;;;4900159;29;20515;-77
2021/09/03 04:03:14;;;;;;;60.10;40.90;;;12.70;96.70;;;;;;4900267;29;20059;-76
2021/09/03 04:05:40;;;;;;;65.23;42.13;;;12.70;96.70;;;;;;4900283;29;20163;-76
2021/09/03 04:08:06;;;;;;;59.27;41.03;;;12.70;96.80;;;;;;4900418;29;20072;-77
2021/09/03 04:10:32;;;;;;;58.60;41.07;;;12.60;96.80;;;;;;4900491;29;20099;-77
2021/09/03 04:12:58;;;;;;;61.37;40.83;;;12.60;96.80;;;;;;4884639;29;20055;-77
2021/09/03 04:15:24;;;;;;;51.10;38.87;;;12.60;96.80;;;;;;4900050;29;20071;-77
2021/09/03 04:17:49;;;;;;;55.37;39.50;;;12.60;96.80;;;;;;4916972;29;20484;-77
2021/09/03 04:20:15;;;;;;;54.90;40.63;;;12.70;96.80;;;;;;4884924;29;20033;-77
2021/09/03 04:22:41;;;;;;;62.30;42.23;;;12.70;96.80;;;;;;4931725;29;20057;-77
2021/09/03 04:25:07;;;;;;;58.53;40.67;;;12.60;96.80;;;;;;4884397;29;20472;-78
2021/09/03 04:27:34;;;;;;;60.03;41.03;;;12.60;96.80;;;;;;4916926;29;20071;-78
2021/09/03 04:30:01;;;;;;;56.90;40.07;;;12.60;96.90;;;;;;4931424;29;20032;-77
2021/09/03 04:32:27;;;;;;;57.23;41.87;;;12.60;96.90;;;;;;4899688;29;20071;-77
2021/09/03 04:34:53;;;;;;;59.07;40.50;;;12.60;96.90;;;;;;4917048;29;20036;-77
2021/09/03 04:37:18;;;;;;;59.10;41.67;;;12.60;97.10;;;;;;4902178;29;20043;-79
2021/09/03 04:39:44;;;;;;;58.13;41.90;;;12.60;96.90;;;;;;4888371;29;20032;-77
2021/09/03 04:42:10;;;;;;;59.23;42.27;;;12.60;96.90;;;;;;4919313;29;20133;-78
2021/09/03 04:44:35;;;;;;;65.43;45.67;;;12.50;96.90;;;;;;4903702;29;20495;-77
2021/09/03 04:47:01;;;;;;;63.00;43.20;;;12.50;96.90;;;;;;4920187;29;20519;-77
2021/09/03 04:49:27;;;;;;;63.40;43.47;;;12.50;97.00;;;;;;4903647;29;20032;-78
2021/09/03 04:51:52;;;;;;;59.27;40.77;;;12.50;97.00;;;;;;4920236;29;20043;-77
2021/09/03 04:54:18;;;;;;;54.17;39.67;;;12.50;97.10;;;;;;4903306;29;20107;-78
2021/09/03 04:56:44;;;;;;;60.40;41.80;;;12.50;97.00;;;;;;4888357;29;20503;-77
2021/09/03 04:59:09;;;;;;;59.57;42.73;;;12.50;97.00;;;;;;4920333;29;20420;-78
2021/09/03 05:01:35;;;;;;;62.27;42.87;;;12.50;97.00;;;;;;4903688;29;20063;-77
2021/09/03 05:04:00;;;;;;;61.87;43.50;;;12.50;97.10;;;;;;4920804;29;20467;-77
2021/09/03 05:06:26;;;;;;;64.87;44.10;;;12.50;97.10;;;;;;4903278;29;20036;-77
2021/09/03 05:08:52;;;;;;;58.93;41.40;;;12.50;97.10;;;;;;4920067;29;20028;-78
2021/09/03 05:11:17;;;;;;;64.07;45.50;;;12.60;97.20;;;;;;4920143;29;20044;-77
2021/09/03 05:13:43;;;;;;;61.17;41.77;;;12.60;97.10;;;;;;4920013;29;20036;-77
2021/09/03 05:16:09;;;;;;;60.03;40.63;;;12.60;97.10;;;;;;4887403;29;20094;-77
2021/09/03 05:18:34;;;;;;;57.50;40.93;;;12.70;97.20;;;;;;4902814;29;20020;-78
2021/09/03 05:21:00;;;;;;;59.75;41.97;;;13.00;97.30;;;;;;4887339;29;20020;-77
2021/09/03 05:23:26;;;;;;;59.72;43.72;;;13.40;97.30;;;;;;4887245;29;20388;-78
2021/09/03 05:25:52;;;;;;;53.95;40.75;;;13.70;97.00;;;;;;4919806;29;20123;-78
2021/09/03 05:28:18;;;;;;;49.55;39.50;;;14.00;96.40;;;;;;4934340;29;20068;-78
2021/09/03 05:30:44;;;;;;;48.58;37.17;;;14.30;95.90;;;;;;4918573;29;20494;-78
2021/09/03 05:33:09;;;;;;;45.05;35.92;;;14.70;95.20;;;;;;4920203;29;20365;-78
2021/09/03 05:35:35;;;;;;;40.00;31.23;;;15.10;94.10;;;;;;4919639;29;20419;-78
2021/09/03 05:38:04;;;;;;;38.17;30.70;;;15.40;93.30;;;;;;4919684;29;20033;-78
2021/09/03 05:40:31;;;;;;;37.90;28.75;;;15.80;92.30;;;;;;4903247;29;20028;-78
2021/09/03 05:42:56;;;;;;;34.38;27.98;;;16.30;91.50;;;;;;4902736;29;20043;-79
2021/09/03 05:45:22;;;;;;;33.38;26.80;;;16.60;90.50;;;;;;4934676;29;20048;-76
2021/09/03 05:47:48;;;;;;;32.42;23.92;;;17.10;88.90;;;;;;4889316;29;20056;-76
2021/09/03 05:50:15;;;;;;;30.00;25.15;;;17.60;87.00;;;;;;4884238;29;20048;-78
2021/09/03 05:52:41;;;;;;;32.28;24.15;;;17.90;84.80;;;;;;4915121;29;20116;-77
2021/09/03 05:55:08;;;;;;;31.38;23.90;;;18.20;83.10;;;;;;4899343;29;20475;-76
2021/09/03 05:57:33;;;;;;;29.60;23.85;;;18.50;81.80;;;;;;4914720;29;20182;-76
2021/09/03 05:59:59;;;;;;;30.02;22.98;;;18.70;80.10;;;;;;4900407;29;20064;-77
2021/09/03 06:02:26;;;;;;;25.63;22.73;;;18.70;79.70;;;;;;4899190;29;20456;-77
2021/09/03 06:04:51;;;;;;;30.80;24.50;;;19.00;79.40;;;;;;4868229;29;20494;-77
2021/09/03 06:07:17;;;;;;;26.75;22.13;;;19.00;78.30;;;;;;4900626;29;20067;-77
2021/09/03 06:09:43;;;;;;;28.45;23.23;;;19.00;78.00;;;;;;4900311;29;20548;-77
2021/09/03 06:12:09;;;;;;;28.67;22.65;;;18.90;77.90;;;;;;4900230;29;20029;-77
2021/09/03 06:14:35;;;;;;;28.50;22.08;;;19.00;78.30;;;;;;4883490;29;20414;-78
2021/09/03 06:17:00;;;;;;;26.73;21.83;;;19.30;77.80;;;;;;4883898;29;20088;-76
2021/09/03 06:19:26;;;;;;;26.85;21.55;;;19.80;76.40;;;;;;4898759;29;20103;-78
2021/09/03 06:21:52;;;;;;;26.02;21.70;;;20.10;75.30;;;;;;4900109;29;20358;-77
2021/09/03 06:24:27;;;;;;;28.35;22.67;;;20.40;74.00;;;;;;4900105;29;20510;-77
2021/09/03 06:27:01;;;;;;;28.48;22.10;;;20.50;73.40;;;;;;4883246;29;20037;-77
2021/09/03 06:29:42;;;;;;;25.85;22.23;;;20.70;73.00;;;;;;4900193;29;20029;-78
2021/09/03 06:32:16;;;;;;;27.70;20.63;;;20.80;72.30;;;;;;4900056;29;20029;-77
2021/09/03 06:34:47;;;;;;;26.05;21.92;;;20.80;72.60;;;;;;4914215;29;20017;-78
2021/09/03 06:37:13;;;;;;;26.10;21.25;;;21.10;71.50;;;;;;4900016;29;20035;-78
2021/09/03 06:39:39;;;;;;;27.52;21.48;;;21.20;71.40;;;;;;4867928;29;20033;-80
2021/09/03 06:42:06;;;;;;;26.90;21.77;;;21.40;70.80;;;;;;4899426;29;20025;-80
2021/09/03 06:44:33;;;;;;;26.25;21.40;;;21.40;70.10;;;;;;4899923;29;20028;-81
2021/09/03 06:46:59;;;;;;;24.48;20.92;;;21.60;70.40;;;;;;4915773;29;20158;-80
2021/09/03 06:49:25;;;;;;;25.23;19.95;;;21.80;69.70;;;;;;4899706;29;20499;-80
2021/09/03 06:51:51;;;;;;;26.98;19.95;;;22.10;69.20;;;;;;4899324;29;20032;-81
2021/09/03 06:54:17;;;;;;;24.77;19.38;;;22.40;68.40;;;;;;4883551;29;20029;-82
2021/09/03 06:56:43;;;;;;;21.83;18.92;;;22.70;67.80;;;;;;4882572;29;20040;-81
2021/09/03 06:59:09;;;;;;;23.80;19.75;;;23.00;67.30;;;;;;4913158;29;20025;-81
2021/09/03 07:01:34;;;;;;;22.55;18.75;;;23.20;65.80;;;;;;4882590;29;20092;-80
2021/09/03 07:04:00;;;;;;;24.52;21.30;;;23.10;66.10;;;;;;4882637;29;20044;-81
2021/09/03 07:06:26;;;;;;;27.15;21.20;;;22.90;66.00;;;;;;4913685;29;20047;-80
2021/09/03 07:08:52;;;;;;;23.27;19.58;;;22.50;66.60;;;;;;4867034;29;20362;-80
2021/09/03 07:11:17;;;;;;;23.00;19.23;;;22.30;67.30;;;;;;4867443;29;20037;-81
2021/09/03 07:13:43;;;;;;;24.17;19.20;;;22.30;67.60;;;;;;4913549;29;20033;-80
2021/09/03 07:16:09;;;;;;;23.60;19.65;;;22.50;67.60;;;;;;4866896;29;20041;-81
2021/09/03 07:18:35;;;;;;;24.55;18.95;;;23.30;67.20;;;;;;4866488;29;20119;-81
2021/09/03 07:21:01;;;;;;;21.38;17.52;;;24.10;64.50;;;;;;4882192;29;20119;-82
2021/09/03 07:23:31;;;;;;;22.90;19.83;;;24.10;64.10;;;;;;4898591;29;20033;-80
2021/09/03 07:25:57;;;;;;;21.88;18.45;;;24.40;63.70;;;;;;4897808;29;20501;-81
2021/09/03 07:28:22;;;;;;;20.65;17.52;;;24.50;62.70;;;;;;4881829;29;20076;-82
2021/09/03 07:30:48;;;;;;;20.98;17.08;;;24.30;62.90;;;;;;4883662;29;20445;-81
2021/09/03 07:33:14;;;;;;;21.55;18.42;;;24.30;62.80;;;;;;4867617;29;20036;-80
2021/09/03 07:35:46;;;;;;;21.67;18.77;;;24.30;62.50;;;;;;4899850;29;20043;-82
2021/09/03 07:38:12;;;;;;;22.95;18.73;;;24.30;63.10;;;;;;4883548;29;20353;-81
2021/09/03 07:40:40;;;;;;;22.13;17.85;;;24.80;62.00;;;;;;4866962;29;20033;-81
2021/09/03 07:43:06;;;;;;;20.42;18.08;;;24.70;61.80;;;;;;4898741;29;20085;-80
2021/09/03 07:45:36;;;;;;;19.58;16.92;;;24.70;61.50;;;;;;4913351;29;20429;-80
2021/09/03 07:48:04;;;;;;;24.55;18.33;;;24.80;61.50;;;;;;4889886;29;20464;-81
2021/09/03 07:50:30;;;;;;;20.80;17.90;;;24.60;61.40;;;;;;4917438;29;20067;-78
2021/09/03 07:52:56;;;;;;;19.83;16.85;;;24.40;62.00;;;;;;4917912;29;20520;-81
2021/09/03 07:55:22;;;;;;;23.42;18.02;;;24.70;62.10;;;;;;4917673;29;20112;-81
2021/09/03 07:57:48;;;;;;;18.92;16.90;;;25.30;62.30;;;;;;4900335;29;20119;-81
2021/09/03 08:00:16;;;;;;;26.95;18.73;;;26.00;60.70;;;;;;4903263;29;20036;-80
2021/09/03 08:02:42;;;;;;;21.55;17.30;;;26.70;59.10;;;;;;4916302;29;20424;-81
2021/09/03 08:05:08;;;;;;;25.80;21.75;;;27.00;57.80;;;;;;4918067;29;20040;-82
2021/09/03 08:07:33;;;;;;;20.23;17.65;;;27.00;57.20;;;;;;4900899;29;20543;-83
2021/09/03 08:09:59;;;;;;;20.77;18.55;;;27.30;57.00;;;;;;4900054;29;20071;-82
2021/09/03 08:12:25;;;;;;;19.00;16.92;;;27.50;57.10;;;;;;4917414;29;20465;-80
2021/09/03 08:14:51;;;;;;;16.70;14.45;;;27.90;55.80;;;;;;4884873;29;20070;-80
2021/09/03 08:17:17;;;;;;;17.98;15.00;;;28.20;54.90;;;;;;4917797;29;20020;-83
2021/09/03 08:19:44;;;;;;;16.65;14.85;;;27.90;54.40;;;;;;4931927;29;20168;-81
2021/09/03 08:22:10;;;;;;;16.60;14.13;;;27.70;55.00;;;;;;4901148;29;20032;-80
2021/09/03 08:24:36;;;;;;;16.73;14.93;;;28.10;54.50;;;;;;4900314;29;20035;-81
2021/09/03 08:27:02;;;;;;;17.17;14.60;;;28.10;54.10;;;;;;4900017;29;20499;-82
2021/09/03 08:29:28;;;;;;;15.70;13.85;;;28.30;53.70;;;;;;4900327;29;20028;-80
2021/09/03 08:31:53;;;;;;;20.15;13.55;;;28.50;54.00;;;;;;4900224;29;20024;-80
2021/09/03 08:34:19;;;;;;;15.35;13.73;;;28.90;53.00;;;;;;4885315;29;20025;-80
2021/09/03 08:36:44;;;;;;;16.08;13.02;;;29.10;52.30;;;;;;4899832;29;20036;-80
2021/09/03 08:39:10;;;;;;;15.43;13.05;;;29.30;52.00;;;;;;4884538;29;20028;-85
2021/09/03 08:41:39;;;;;;;15.55;12.13;;;29.20;50.50;;;;;;4884270;29;20084;-79
2021/09/03 08:44:05;;;;;;;16.50;12.70;;;28.90;51.80;;;;;;4899471;29;20036;-79
2021/09/03 08:46:34;;;;;;;16.60;13.10;;;29.00;51.40;;;;;;4931762;29;20040;-79
2021/09/03 08:49:01;;;;;;;14.63;12.80;;;29.30;51.40;;;;;;4914802;29;20055;-80
2021/09/03 08:51:27;;;;;;;17.05;12.95;;;29.60;50.00;;;;;;4896574;29;20562;-80
2021/09/03 08:53:54;;;;;;;15.55;12.68;;;29.70;50.40;;;;;;4880811;29;20100;-79
2021/09/03 08:56:20;;;;;;;14.20;11.27;;;29.50;50.50;;;;;;4865345;29;20203;-79
2021/09/03 08:58:49;;;;;;;14.98;12.45;;;29.40;50.40;;;;;;4880836;29;20036;-79
2021/09/03 09:01:17;;;;;;;13.13;11.70;;;29.50;49.80;;;;;;4881182;29;20052;-80
2021/09/03 09:03:45;;;;;;;14.18;10.77;;;29.70;50.60;;;;;;4881111;29;20489;-79
2021/09/03 09:06:19;;;;;;;14.27;11.88;;;29.50;49.40;;;;;;4897693;29;20033;-79
2021/09/03 09:08:47;;;;;;;13.30;10.90;;;29.70;48.40;;;;;;4912847;29;20479;-80
2021/09/03 09:11:13;;;;;;;15.57;11.00;;;29.70;48.80;;;;;;4881407;29;20444;-79
2021/09/03 09:13:42;;;;;;;12.50;10.90;;;29.40;50.00;;;;;;4881157;29;20092;-78
2021/09/03 09:16:10;;;;;;;12.52;10.93;;;29.50;49.00;;;;;;4897454;29;20040;-79
2021/09/03 09:18:49;;;;;;;14.93;12.95;;;29.10;49.10;;;;;;4897489;29;20021;-79
2021/09/03 09:21:26;;;;;;;12.60;11.15;;;28.40;49.80;;;;;;4912346;29;20036;-79
2021/09/03 09:24:04;;;;;;;13.05;11.20;;;28.30;51.80;;;;;;4915231;29;20036;-78
2021/09/03 09:26:56;;;;;;;15.60;11.98;;;28.90;51.70;;;;;;4901188;29;20036;-80
2021/09/03 09:29:36;;;;;;;12.43;10.43;;;29.50;48.90;;;;;;4915579;29;20069;-79
2021/09/03 09:32:07;;;;;;;12.90;11.20;;;29.70;49.30;;;;;;4915356;29;20024;-79
2021/09/03 09:34:36;;;;;;;15.43;11.73;;;29.60;48.20;;;;;;4901082;29;20037;-80
2021/09/03 09:37:07;;;;;;;13.23;10.55;;;29.20;48.90;;;;;;4900618;29;20043;-80
2021/09/03 09:39:49;;;;;;;14.32;10.63;;;28.50;49.80;;;;;;4916113;29;20028;-80
2021/09/03 09:42:35;;;;;;;14.90;11.32;;;28.20;51.30;;;;;;4883896;29;20025;-80
2021/09/03 09:45:02;;;;;;;14.07;10.93;;;28.60;50.80;;;;;;4900322;29;20032;-79
2021/09/03 09:47:28;;;;;;;11.98;10.70;;;28.70;50.90;;;;;;4885377;29;20052;-80
2021/09/03 09:49:54;;;;;;;10.43;9.30;;;28.70;50.40;;;;;;4933618;29;20028;-81
2021/09/03 09:52:37;;;;;;;13.27;9.75;;;28.80;50.00;;;;;;4934208;29;20496;-79
2021/09/03 09:55:04;;;;;;;11.18;7.93;;;28.60;50.60;;;;;;4934902;29;20032;-80
2021/09/03 09:57:33;;;;;;;13.85;9.82;;;29.30;50.20;;;;;;4934660;29;20028;-80
2021/09/03 10:00:03;;;;;;;12.95;9.70;;;29.50;48.00;;;;;;4919468;29;20040;-81
2021/09/03 10:02:29;;;;;;;10.07;8.38;;;29.00;48.00;;;;;;4902338;29;20024;-80
2021/09/03 10:04:57;;;;;;;12.07;8.60;;;28.70;49.30;;;;;;4918049;29;20100;-80
2021/09/03 10:07:24;;;;;;;13.85;9.82;;;28.70;49.30;;;;;;4919272;29;20062;-82
2021/09/03 10:09:58;;;;;;;10.05;8.05;;;29.00;49.40;;;;;;4917545;29;20106;-80
2021/09/03 10:12:25;;;;;;;12.23;8.63;;;28.50;49.40;;;;;;4933730;29;20028;-81
2021/09/03 10:14:50;;;;;;;8.50;7.13;;;28.30;50.30;;;;;;4886061;29;20028;-81
2021/09/03 10:17:19;;;;;;;10.23;7.72;;;28.60;49.10;;;;;;4917178;29;20080;-81
2021/09/03 10:19:50;;;;;;;10.50;6.97;;;28.60;48.20;;;;;;4932645;29;20568;-81
2021/09/03 10:22:17;;;;;;;8.98;6.00;;;28.30;50.00;;;;;;4918731;29;20028;-82
2021/09/03 10:24:45;;;;;;;8.07;6.20;;;28.90;49.50;;;;;;4917637;29;20052;-81
2021/09/03 10:27:12;;;;;;;9.02;6.72;;;29.30;48.70;;;;;;4901933;29;20036;-81
2021/09/03 10:29:46;;;;;;;9.38;6.90;;;28.90;48.20;;;;;;4901535;29;20032;-79
2021/09/03 10:32:18;;;;;;;7.18;6.00;;;28.70;48.80;;;;;;4918447;29;20059;-82
2021/09/03 10:34:50;;;;;;;10.85;7.28;;;28.80;49.10;;;;;;4900829;29;20028;-81
2021/09/03 10:37:18;;;;;;;9.98;6.28;;;28.70;49.80;;;;;;4901814;29;20089;-80
2021/09/03 10:39:47;;;;;;;14.80;9.00;;;28.70;50.70;;;;;;4901762;29;20456;-79
2021/09/03 10:42:51;;;;;;;10.23;6.32;;;28.90;49.20;;;;;;4919053;29;20043;-80
2021/09/03 10:45:27;;;;;;;10.10;7.22;;;29.00;49.80;;;;;;4919304;29;20040;-80
2021/09/03 10:47:59;;;;;;;9.23;7.50;;;29.80;48.50;;;;;;4933985;29;20059;-81
2021/09/03 10:50:35;;;;;;;6.82;6.13;;;29.40;46.40;;;;;;4918594;29;20028;-81
2021/09/03 10:55:58;;;;;;;14.18;7.03;;;28.90;48.80;;;;;;4918795;29;20032;-83
2021/09/03 10:58:36;;;;;;;7.97;5.97;;;28.80;48.40;;;;;;4901687;29;20028;-81
2021/09/03 11:01:14;;;;;;;8.40;6.25;;;29.10;48.80;;;;;;4902500;29;20035;-80
2021/09/03 11:03:47;;;;;;;8.57;6.28;;;29.00;48.30;;;;;;4901879;29;20024;-80
2021/09/03 11:06:14;;;;;;;7.35;5.78;;;28.70;48.30;;;;;;4901305;29;20036;-81
2021/09/03 11:08:40;;;;;;;10.18;7.30;;;28.30;48.60;;;;;;4902338;29;20512;-83
2021/09/03 11:11:39;;;;;;;7.03;5.53;;;28.60;48.50;;;;;;4918544;29;20050;-81
2021/09/03 11:14:09;;;;;;;7.05;5.93;;;28.70;50.00;;;;;;4870518;29;20087;-81
2021/09/03 11:16:39;;;;;;;9.40;6.38;;;28.90;48.80;;;;;;4922079;29;20032;-82
2021/09/03 11:19:11;;;;;;;11.50;7.13;;;28.90;49.10;;;;;;4904301;29;20035;-82
2021/09/03 11:21:39;;;;;;;9.30;7.07;;;29.00;48.10;;;;;;4922694;29;20055;-81
2021/09/03 11:24:07;;;;;;;7.32;6.00;;;28.40;48.10;;;;;;4906185;29;20024;-81
2021/09/03 11:26:35;;;;;;;8.98;6.63;;;28.20;50.10;;;;;;4903941;29;20080;-82
2021/09/03 11:29:04;;;;;;;10.45;6.45;;;28.30;50.60;;;;;;4920356;29;20040;-83
2021/09/03 11:31:33;;;;;;;9.73;6.80;;;28.70;49.40;;;;;;4903324;29;20024;-83
2021/09/03 11:34:05;;;;;;;6.20;5.60;;;28.60;48.60;;;;;;4935032;29;20116;-83
2021/09/03 11:36:45;;;;;;;7.18;5.80;;;28.50;49.30;;;;;;4919197;29;20088;-83
2021/09/03 11:39:16;;;;;;;8.05;6.68;;;28.90;49.00;;;;;;4918859;29;20066;-81
2021/09/03 11:41:51;;;;;;;8.00;5.95;;;28.70;48.60;;;;;;4902760;29;20020;-82
2021/09/03 11:44:17;;;;;;;8.02;6.13;;;28.90;49.50;;;;;;4917555;29;20058;-81
2021/09/03 11:46:42;;;;;;;8.48;6.35;;;29.10;48.90;;;;;;4902277;29;20047;-82
2021/09/03 11:49:10;;;;;;;10.90;6.10;;;28.60;49.20;;;;;;4917451;29;20434;-81
2021/09/03 11:51:37;;;;;;;9.27;7.43;;;28.70;50.50;;;;;;4920346;29;20058;-80
2021/09/03 11:54:03;;;;;;;7.72;5.97;;;28.60;48.20;;;;;;4922323;29;20032;-80
2021/09/03 11:56:29;;;;;;;7.78;5.82;;;28.00;49.80;;;;;;4902290;29;20111;-83
2021/09/03 11:58:54;;;;;;;9.68;6.03;;;28.00;50.70;;;;;;4934390;29;20484;-81
2021/09/03 12:01:21;;;;;;;6.68;5.82;;;28.10;49.50;;;;;;4917952;29;20092;-82
2021/09/03 12:03:49;;;;;;;8.52;6.50;;;27.90;49.90;;;;;;4902007;29;20106;-82
2021/09/03 12:06:18;;;;;;;6.38;5.60;;;28.20;50.50;;;;;;4902654;29;20083;-82
2021/09/03 12:08:44;;;;;;;10.18;7.07;;;28.50;50.30;;;;;;4935401;29;20413;-83
2021/09/03 12:11:17;;;;;;;6.35;5.75;;;28.70;47.70;;;;;;4918927;29;20024;-83
2021/09/03 12:13:50;;;;;;;7.80;6.60;;;28.30;48.50;;;;;;4918603;29;20036;-81
2021/09/03 12:16:21;;;;;;;7.35;5.90;;;27.80;50.00;;;;;;4904319;29;20036;-82
2021/09/03 12:18:58;;;;;;;8.65;5.38;;;27.70;48.90;;;;;;4907413;29;20024;-81
2021/09/03 12:21:29;;;;;;;8.40;5.07;;;27.50;47.30;;;;;;4907988;29;20051;-82
2021/09/03 12:24:01;;;;;;;6.53;4.68;;;27.50;47.10;;;;;;4926269;29;20028;-82
2021/09/03 12:26:52;;;;;;;10.27;6.87;;;27.70;47.00;;;;;;4911034;29;20062;-82
2021/09/03 12:29:23;;;;;;;9.00;5.70;;;27.70;48.90;;;;;;4912200;29;20028;-82
2021/09/03 12:32:01;;;;;;;6.05;5.28;;;27.70;49.70;;;;;;4928657;29;20024;-81
2021/09/03 12:34:34;;;;;;;8.25;5.68;;;28.10;50.10;;;;;;4942943;29;20129;-82
2021/09/03 12:37:08;;;;;;;5.78;4.60;;;28.30;48.30;;;;;;4929402;29;20043;-82